createdAt,value
2023-01-29T00:00:22.230Z,12.88
2023-01-29T00:02:48.733Z,14.95
2023-01-29T00:05:26.885Z,12.57
2023-01-29T00:07:53.964Z,15.98
2023-01-29T00:10:20.386Z,14.23
2023-01-29T00:12:46.765Z,15.60
2023-01-29T00:15:13.186Z,14.57
2023-01-29T00:17:39.543Z,14.63
2023-01-29T00:20:06.502Z,15.00
2023-01-29T00:22:32.864Z,13.32
2023-01-29T00:24:59.395Z,15.25
2023-01-29T00:27:25.796Z,16.77
2023-01-29T00:30:11.845Z,15.37
2023-01-29T00:32:39.589Z,12.38
2023-01-29T00:35:07.385Z,15.00
2023-01-29T00:37:33.798Z,15.85
2023-01-29T00:40:00.364Z,13.10
2023-01-29T00:42:45.191Z,13.80
2023-01-29T00:45:12.684Z,15.30
2023-01-29T00:47:39.103Z,14.90
2023-01-29T00:50:09.437Z,12.18
2023-01-29T00:52:36.752Z,15.20
2023-01-29T00:55:04.952Z,15.30
2023-01-29T00:57:33.562Z,13.60
2023-01-29T01:00:00.410Z,11.65
2023-01-29T01:02:46.185Z,12.65
2023-01-29T01:05:19.291Z,15.20
2023-01-29T01:07:52.945Z,14.47
2023-01-29T01:10:39.566Z,15.90
2023-01-29T01:13:07.182Z,17.08
2023-01-29T01:15:40.091Z,12.02
2023-01-29T01:18:06.907Z,15.10
2023-01-29T01:20:35.638Z,13.37
2023-01-29T01:23:02.363Z,12.82
2023-01-29T01:25:28.880Z,19.52
2023-01-29T01:27:56.988Z,13.35
2023-01-29T01:30:24.210Z,14.57
2023-01-29T01:32:50.783Z,13.07
2023-01-29T01:35:17.401Z,11.85
2023-01-29T01:37:43.819Z,12.57
2023-01-29T01:40:18.239Z,13.43
2023-01-29T01:42:49.301Z,12.98
2023-01-29T01:45:35.805Z,11.50
2023-01-29T01:48:21.009Z,12.45
2023-01-29T01:50:59.582Z,13.05
2023-01-29T01:53:34.353Z,13.88
2023-01-29T01:56:06.613Z,12.27
2023-01-29T01:58:40.891Z,14.37
2023-01-29T02:01:09.221Z,14.63
2023-01-29T02:04:06.415Z,12.13
2023-01-29T02:06:53.751Z,12.52
2023-01-29T02:09:34.818Z,10.80
2023-01-29T02:12:04.134Z,12.73
2023-01-29T02:14:31.941Z,12.00
2023-01-29T02:17:01.396Z,11.75
2023-01-29T02:19:58.275Z,12.05
2023-01-29T02:22:35.725Z,13.85
2023-01-29T02:25:16.091Z,15.63
2023-01-29T02:27:48.625Z,12.35
2023-01-29T02:30:30.744Z,15.05
2023-01-29T02:33:07.522Z,13.10
2023-01-29T02:35:46.131Z,11.98
2023-01-29T02:38:31.800Z,14.20
2023-01-29T02:41:07.990Z,13.15
2023-01-29T02:43:47.898Z,15.40
2023-01-29T02:46:39.711Z,13.15
2023-01-29T02:49:34.872Z,12.60
2023-01-29T02:52:16.929Z,13.13
2023-01-29T02:55:10.493Z,13.73
2023-01-29T02:57:43.639Z,14.50
2023-01-29T03:00:21.099Z,18.17
2023-01-29T03:03:41.774Z,12.55
2023-01-29T03:06:22.791Z,13.70
2023-01-29T03:08:56.356Z,16.73
2023-01-29T03:11:22.965Z,14.13
2023-01-29T03:13:58.440Z,17.13
2023-01-29T03:16:42.902Z,16.42
2023-01-29T03:19:39.673Z,14.87
2023-01-29T03:22:08.951Z,15.38
2023-01-29T03:24:58.963Z,13.82
2023-01-29T03:27:48.245Z,13.77
2023-01-29T03:30:36.959Z,19.00
2023-01-29T03:33:09.065Z,15.10
2023-01-29T03:35:41.832Z,19.30
2023-01-29T03:38:11.363Z,16.50
2023-01-29T03:40:49.346Z,17.88
2023-01-29T03:43:35.509Z,16.40
2023-01-29T03:46:10.352Z,16.80
2023-01-29T03:48:43.940Z,16.17
2023-01-29T03:51:12.980Z,17.13
2023-01-29T03:53:54.698Z,17.45
2023-01-29T03:56:33.948Z,19.38
2023-01-29T03:59:41.092Z,17.20
2023-01-29T04:02:18.020Z,17.02
2023-01-29T04:04:46.953Z,18.77
2023-01-29T04:07:17.562Z,18.50
2023-01-29T04:09:48.700Z,18.02
2023-01-29T04:12:20.412Z,16.47
2023-01-29T04:14:49.684Z,18.58
2023-01-29T04:17:21.505Z,16.10
2023-01-29T04:19:47.972Z,19.20
2023-01-29T04:22:22.556Z,19.95
2023-01-29T04:24:50.852Z,18.07
2023-01-29T04:27:29.758Z,16.23
2023-01-29T04:30:26.968Z,22.65
2023-01-29T04:33:18.069Z,17.10
2023-01-29T04:36:00.049Z,19.23
2023-01-29T04:38:50.864Z,18.77
2023-01-29T04:41:28.297Z,17.75
2023-01-29T04:44:10.844Z,19.58
2023-01-29T04:46:46.366Z,20.77
2023-01-29T04:49:31.302Z,20.42
2023-01-29T04:52:09.009Z,17.20
2023-01-29T04:54:43.477Z,16.85
2023-01-29T04:57:34.546Z,18.20
2023-01-29T05:00:08.494Z,16.45
2023-01-29T05:02:39.309Z,18.42
2023-01-29T05:05:07.736Z,17.70
2023-01-29T05:07:37.065Z,18.40
2023-01-29T05:10:08.412Z,20.25
2023-01-29T05:12:37.163Z,18.25
2023-01-29T05:15:09.076Z,17.88
2023-01-29T05:17:35.526Z,17.70
2023-01-29T05:20:01.956Z,17.23
2023-01-29T05:22:29.344Z,18.73
2023-01-29T05:24:55.735Z,17.90
2023-01-29T05:27:50.740Z,17.70
2023-01-29T05:30:17.574Z,17.10
2023-01-29T05:32:44.086Z,18.42
2023-01-29T05:35:10.615Z,17.50
2023-01-29T05:37:37.070Z,19.05
2023-01-29T05:40:03.763Z,20.48
2023-01-29T05:42:30.670Z,17.40
2023-01-29T05:44:57.024Z,19.88
2023-01-29T05:47:23.519Z,22.65
2023-01-29T05:49:49.840Z,20.25
2023-01-29T05:52:16.260Z,18.00
2023-01-29T05:54:42.748Z,18.17
2023-01-29T05:57:09.134Z,17.70
2023-01-29T05:59:35.453Z,21.95
2023-01-29T06:02:01.921Z,22.50
2023-01-29T06:04:28.362Z,15.80
2023-01-29T06:06:54.947Z,19.63
2023-01-29T06:09:21.276Z,16.90
2023-01-29T06:11:47.661Z,20.10
2023-01-29T06:14:13.994Z,17.52
2023-01-29T06:16:40.420Z,17.95
2023-01-29T06:19:07.088Z,20.03
2023-01-29T06:21:33.543Z,19.48
2023-01-29T06:24:00.022Z,18.58
2023-01-29T06:26:26.478Z,16.70
2023-01-29T06:28:52.888Z,17.73
2023-01-29T06:31:36.913Z,19.37
2023-01-29T06:34:04.695Z,15.82
2023-01-29T06:36:31.105Z,15.48
2023-01-29T06:38:57.514Z,14.40
2023-01-29T06:41:25.356Z,15.60
2023-01-29T06:43:52.032Z,16.40
2023-01-29T06:46:18.387Z,15.63
2023-01-29T06:48:44.731Z,16.52
2023-01-29T06:51:11.772Z,19.05
2023-01-29T06:53:39.334Z,17.05
2023-01-29T06:56:06.531Z,15.97
2023-01-29T06:58:33.115Z,14.00
2023-01-29T07:01:15.531Z,13.75
2023-01-29T07:03:51.817Z,15.88
2023-01-29T07:06:18.668Z,15.70
2023-01-29T07:08:45.520Z,12.20
2023-01-29T07:11:12.577Z,18.45
2023-01-29T07:13:39.037Z,18.08
2023-01-29T07:16:06.707Z,19.67
2023-01-29T07:18:33.281Z,16.88
2023-01-29T07:21:04.463Z,21.23
2023-01-29T07:23:30.828Z,20.83
2023-01-29T07:26:01.126Z,17.65
2023-01-29T07:28:27.539Z,19.15
2023-01-29T07:30:58.622Z,17.45
2023-01-29T07:33:25.404Z,19.33
2023-01-29T07:35:52.236Z,16.95
2023-01-29T07:38:18.731Z,15.23
2023-01-29T07:40:45.184Z,17.15
2023-01-29T07:43:11.662Z,13.57
2023-01-29T07:45:39.892Z,16.10
2023-01-29T07:48:09.738Z,16.65
2023-01-29T07:50:36.627Z,15.07
2023-01-29T07:53:03.620Z,15.93
2023-01-29T07:55:31.047Z,18.92
2023-01-29T07:57:59.395Z,19.03
2023-01-29T08:00:26.018Z,15.50
2023-01-29T08:02:52.759Z,12.48
2023-01-29T08:05:20.110Z,14.38
2023-01-29T08:07:51.558Z,16.95
2023-01-29T08:10:27.820Z,15.87
2023-01-29T08:12:59.261Z,13.25
2023-01-29T08:15:26.240Z,14.80
2023-01-29T08:20:39.985Z,14.63
2023-01-29T08:23:10.140Z,11.40
2023-01-29T08:25:36.640Z,15.38
2023-01-29T08:28:04.516Z,14.25
2023-01-29T08:30:32.832Z,14.30
2023-01-29T08:32:59.214Z,15.07
2023-01-29T08:35:26.330Z,11.77
2023-01-29T08:38:03.573Z,12.00
2023-01-29T08:40:32.230Z,15.50
2023-01-29T08:43:04.548Z,15.13
2023-01-29T08:45:34.052Z,14.70
2023-01-29T08:48:00.506Z,14.87
2023-01-29T08:50:26.999Z,18.02
2023-01-29T08:52:59.075Z,18.48
2023-01-29T08:55:26.161Z,19.98
2023-01-29T08:57:52.538Z,27.73
2023-01-29T09:00:19.542Z,18.70
2023-01-29T09:02:46.025Z,15.18
2023-01-29T09:05:12.409Z,13.85
2023-01-29T09:07:38.779Z,13.00
2023-01-29T09:10:05.748Z,14.50
2023-01-29T09:12:32.103Z,13.63
2023-01-29T09:14:58.444Z,15.65
2023-01-29T09:17:24.761Z,16.45
2023-01-29T09:19:52.944Z,14.68
2023-01-29T09:22:20.270Z,16.58
2023-01-29T09:24:46.672Z,19.83
2023-01-29T09:27:13.562Z,15.15
2023-01-29T09:29:39.998Z,17.13
2023-01-29T09:32:06.924Z,12.80
2023-01-29T09:34:33.665Z,19.10
2023-01-29T09:37:00.189Z,15.77
2023-01-29T09:39:26.564Z,16.98
2023-01-29T09:42:01.878Z,15.10
2023-01-29T09:44:40.463Z,12.95
2023-01-29T09:47:12.763Z,16.63
2023-01-29T09:49:47.867Z,14.70
2023-01-29T09:52:55.764Z,15.85
2023-01-29T09:55:28.554Z,16.38
2023-01-29T09:57:59.279Z,16.33
2023-01-29T10:00:30.565Z,12.10
2023-01-29T10:03:21.057Z,16.53
2023-01-29T10:05:56.457Z,16.42
2023-01-29T10:08:46.718Z,16.23
2023-01-29T10:11:26.459Z,12.48
2023-01-29T10:14:14.524Z,11.68
2023-01-29T10:17:06.959Z,20.40
2023-01-29T10:19:42.463Z,16.00
2023-01-29T10:22:43.425Z,16.30
2023-01-29T10:25:19.666Z,15.73
2023-01-29T10:27:53.149Z,14.07
2023-01-29T10:30:47.423Z,13.53
2023-01-29T10:33:49.481Z,15.50
2023-01-29T10:36:34.044Z,18.73
2023-01-29T10:39:00.540Z,14.52
2023-01-29T10:41:40.959Z,15.10
2023-01-29T10:44:36.391Z,17.13
2023-01-29T10:47:29.258Z,19.85
2023-01-29T10:50:15.297Z,14.65
2023-01-29T10:53:18.724Z,15.10
2023-01-29T10:56:23.584Z,15.95
2023-01-29T10:59:05.294Z,17.53
2023-01-29T11:01:31.837Z,15.93
2023-01-29T11:04:03.613Z,15.98
2023-01-29T11:06:32.844Z,18.83
2023-01-29T11:09:33.157Z,14.10
2023-01-29T11:12:10.518Z,27.87
2023-01-29T11:14:47.962Z,21.15
2023-01-29T11:17:16.807Z,16.55
2023-01-29T11:19:46.137Z,20.52
2023-01-29T11:22:13.733Z,22.08
2023-01-29T11:24:40.128Z,19.43
2023-01-29T11:27:33.589Z,18.33
2023-01-29T11:30:00.143Z,21.33
2023-01-29T11:32:30.457Z,18.00
2023-01-29T11:34:56.762Z,21.42
2023-01-29T11:37:23.705Z,19.57
2023-01-29T11:39:50.573Z,18.55
2023-01-29T11:42:22.396Z,21.92
2023-01-29T11:44:49.393Z,28.00
2023-01-29T11:47:26.908Z,18.73
2023-01-29T11:50:00.900Z,21.27
2023-01-29T11:52:36.043Z,22.17
2023-01-29T11:55:07.095Z,20.40
2023-01-29T11:57:38.724Z,20.70
2023-01-29T12:00:17.836Z,20.48
2023-01-29T12:03:10.488Z,21.93
2023-01-29T12:05:39.201Z,21.13
2023-01-29T12:08:17.061Z,24.77
2023-01-29T12:10:44.367Z,19.55
2023-01-29T12:13:10.870Z,19.58
2023-01-29T12:15:41.945Z,20.23
2023-01-29T12:18:29.987Z,19.92
2023-01-29T12:21:03.365Z,18.52
2023-01-29T12:23:41.683Z,18.00
2023-01-29T12:26:15.932Z,22.70
2023-01-29T12:28:54.679Z,19.80
2023-01-29T12:31:32.607Z,22.50
2023-01-29T12:34:25.160Z,18.20
2023-01-29T12:37:15.164Z,20.58
2023-01-29T12:39:41.644Z,23.25
2023-01-29T12:42:22.933Z,19.43
2023-01-29T12:44:57.612Z,21.50
2023-01-29T12:47:47.129Z,20.50
2023-01-29T12:50:28.272Z,19.48
2023-01-29T12:53:05.074Z,20.98
2023-01-29T12:55:38.145Z,22.63
2023-01-29T12:58:12.686Z,23.85
2023-01-29T13:00:43.399Z,21.88
2023-01-29T13:03:27.560Z,22.38
2023-01-29T13:06:17.151Z,22.08
2023-01-29T13:08:53.762Z,25.97
2023-01-29T13:11:31.484Z,21.65
2023-01-29T13:14:07.973Z,22.65
2023-01-29T13:16:40.586Z,20.00
2023-01-29T13:19:21.056Z,25.45
2023-01-29T13:21:48.602Z,21.50
2023-01-29T13:24:18.445Z,23.42
2023-01-29T13:26:46.919Z,25.40
2023-01-29T13:29:31.752Z,23.52
2023-01-29T13:32:00.676Z,21.02
2023-01-29T13:34:31.689Z,24.10
2023-01-29T13:37:01.475Z,20.65
2023-01-29T13:39:35.158Z,23.27
2023-01-29T13:42:14.907Z,22.13
2023-01-29T13:44:41.525Z,19.67
2023-01-29T13:47:12.152Z,21.57
2023-01-29T13:49:53.390Z,21.60
2023-01-29T13:52:40.972Z,23.98
2023-01-29T13:55:22.329Z,23.77
2023-01-29T13:57:52.310Z,17.63
2023-01-29T14:00:20.309Z,20.13
2023-01-29T14:02:55.778Z,23.73
2023-01-29T14:05:31.492Z,16.98
2023-01-29T14:07:59.347Z,22.30
2023-01-29T14:10:30.776Z,20.50
2023-01-29T14:13:03.070Z,21.87
2023-01-29T14:15:34.651Z,22.83
2023-01-29T14:18:24.970Z,22.25
2023-01-29T14:21:00.231Z,17.38
2023-01-29T14:23:41.972Z,22.38
2023-01-29T14:26:43.759Z,18.97
2023-01-29T14:29:18.798Z,18.08
2023-01-29T14:32:06.228Z,20.65
2023-01-29T14:34:49.373Z,19.77
2023-01-29T14:37:15.680Z,16.55
2023-01-29T14:39:45.099Z,17.90
2023-01-29T14:42:25.843Z,20.23
2023-01-29T14:45:00.165Z,20.23
2023-01-29T14:47:32.631Z,19.15
2023-01-29T14:50:01.897Z,17.08
2023-01-29T14:52:50.513Z,22.13
2023-01-29T14:55:30.947Z,20.40
2023-01-29T14:57:58.412Z,16.88
2023-01-29T15:00:29.141Z,19.27
2023-01-29T15:03:02.332Z,18.33
2023-01-29T15:05:37.466Z,16.90
2023-01-29T15:08:13.669Z,17.27
2023-01-29T15:11:10.724Z,19.42
2023-01-29T15:13:47.837Z,21.05
2023-01-29T15:16:24.187Z,19.33
2023-01-29T15:18:54.936Z,23.13
2023-01-29T15:21:21.443Z,18.83
2023-01-29T15:23:48.713Z,18.55
2023-01-29T15:26:24.779Z,20.75
2023-01-29T15:29:05.046Z,17.77
2023-01-29T15:31:32.234Z,18.13
2023-01-29T15:34:04.752Z,20.55
2023-01-29T15:36:32.036Z,18.88
2023-01-29T15:39:17.155Z,20.65
2023-01-29T15:41:44.700Z,18.80
2023-01-29T15:44:22.592Z,21.30
2023-01-29T15:46:57.109Z,19.55
2023-01-29T15:49:37.975Z,22.35
2023-01-29T15:52:08.195Z,19.88
2023-01-29T15:54:35.970Z,18.58
2023-01-29T15:57:03.517Z,21.53
2023-01-29T15:59:34.621Z,18.50
2023-01-29T16:02:35.294Z,17.83
2023-01-29T16:05:02.520Z,17.98
2023-01-29T16:07:29.975Z,22.25
2023-01-29T16:09:57.402Z,18.23
2023-01-29T16:12:24.421Z,20.17
2023-01-29T16:14:51.535Z,17.77
2023-01-29T16:17:30.574Z,21.30
2023-01-29T16:19:59.218Z,17.48
2023-01-29T16:22:30.525Z,19.43
2023-01-29T16:25:02.020Z,18.80
2023-01-29T16:27:30.917Z,20.50
2023-01-29T16:29:57.691Z,18.20
2023-01-29T16:32:24.284Z,23.10
2023-01-29T16:34:57.516Z,17.03
2023-01-29T16:37:30.505Z,20.27
2023-01-29T16:39:57.580Z,17.95
2023-01-29T16:42:31.390Z,20.00
2023-01-29T16:45:06.050Z,20.92
2023-01-29T16:47:41.510Z,18.90
2023-01-29T16:50:54.896Z,19.23
2023-01-29T16:53:24.443Z,19.70
2023-01-29T16:55:52.319Z,18.77
2023-01-29T16:58:28.136Z,19.08
2023-01-29T17:01:03.560Z,21.83
2023-01-29T17:03:33.225Z,18.27
2023-01-29T17:06:09.068Z,18.75
2023-01-29T17:08:36.070Z,18.38
2023-01-29T17:11:03.076Z,22.73
2023-01-29T17:13:42.667Z,22.63
2023-01-29T17:16:28.034Z,18.42
2023-01-29T17:18:54.801Z,23.67
2023-01-29T17:21:21.331Z,21.17
2023-01-29T17:23:47.746Z,22.27
2023-01-29T17:26:15.060Z,21.87
2023-01-29T17:28:41.937Z,25.33
2023-01-29T17:31:08.847Z,23.70
2023-01-29T17:33:42.299Z,22.60
2023-01-29T17:36:14.266Z,25.92
2023-01-29T17:38:41.133Z,23.33
2023-01-29T17:41:11.548Z,24.50
2023-01-29T17:43:38.010Z,22.45
2023-01-29T17:46:04.829Z,24.27
2023-01-29T17:48:31.811Z,25.08
2023-01-29T17:51:03.669Z,22.03
2023-01-29T17:53:44.556Z,25.27
2023-01-29T17:56:23.542Z,19.85
2023-01-29T17:58:49.992Z,28.52
2023-01-29T18:01:16.470Z,23.42
2023-01-29T18:03:42.927Z,25.70
2023-01-29T18:06:12.500Z,25.05
2023-01-29T18:08:39.705Z,29.40
2023-01-29T18:11:06.289Z,27.15
2023-01-29T18:13:32.915Z,25.25
2023-01-29T18:15:59.426Z,23.37
2023-01-29T18:18:25.863Z,27.48
2023-01-29T18:20:52.340Z,25.17
2023-01-29T18:23:18.809Z,25.55
2023-01-29T18:25:45.350Z,26.25
2023-01-29T18:28:17.150Z,22.90
2023-01-29T18:30:47.007Z,23.48
2023-01-29T18:33:14.293Z,24.65
2023-01-29T18:35:40.768Z,23.60
2023-01-29T18:38:07.155Z,26.25
2023-01-29T18:40:33.621Z,20.13
2023-01-29T18:43:00.878Z,24.75
2023-01-29T18:45:28.678Z,25.58
2023-01-29T18:47:55.424Z,26.20
2023-01-29T18:50:26.198Z,25.42
2023-01-29T18:52:55.793Z,27.30
2023-01-29T18:55:23.388Z,29.23
2023-01-29T18:58:25.851Z,27.95
2023-01-29T19:00:40.346Z,21.83
2023-01-29T19:03:06.811Z,22.23
2023-01-29T19:05:34.003Z,24.13
2023-01-29T19:08:00.899Z,22.48
2023-01-29T19:10:27.377Z,24.13
2023-01-29T19:12:53.771Z,22.75
2023-01-29T19:15:21.940Z,24.45
2023-01-29T19:17:49.568Z,28.07
2023-01-29T19:20:16.049Z,22.95
2023-01-29T19:22:42.438Z,23.05
2023-01-29T19:25:09.408Z,20.15
2023-01-29T19:27:35.856Z,23.50
2023-01-29T19:30:05.416Z,24.07
2023-01-29T19:32:32.320Z,25.17
2023-01-29T19:34:58.795Z,20.95
2023-01-29T19:37:25.469Z,22.63
2023-01-29T19:39:52.020Z,21.05
2023-01-29T19:42:20.305Z,22.97
2023-01-29T19:44:46.690Z,25.48
2023-01-29T19:47:13.204Z,21.00
2023-01-29T19:49:40.496Z,22.48
2023-01-29T19:52:14.655Z,23.73
2023-01-29T19:54:46.119Z,24.07
2023-01-29T19:57:12.536Z,24.85
2023-01-29T19:59:38.997Z,27.08
2023-01-29T20:02:05.510Z,26.88
2023-01-29T20:04:32.284Z,25.55
2023-01-29T20:06:59.417Z,25.40
2023-01-29T20:09:25.925Z,24.52
2023-01-29T20:11:52.440Z,23.60
2023-01-29T20:14:18.890Z,25.67
2023-01-29T20:16:45.302Z,20.80
2023-01-29T20:19:13.667Z,24.53
2023-01-29T20:21:41.765Z,26.70
2023-01-29T20:24:12.155Z,26.98
2023-01-29T20:26:38.952Z,21.92
2023-01-29T20:29:06.387Z,25.23
2023-01-29T20:31:33.611Z,23.97
2023-01-29T20:34:00.238Z,26.25
2023-01-29T20:36:26.723Z,22.92
2023-01-29T20:38:53.145Z,28.30
2023-01-29T20:41:19.636Z,26.67
2023-01-29T20:43:47.140Z,24.13
2023-01-29T20:46:13.861Z,20.73
2023-01-29T20:48:41.896Z,27.08
2023-01-29T20:51:15.533Z,24.00
2023-01-29T20:53:45.033Z,25.48
2023-01-29T20:56:12.125Z,22.63
2023-01-29T20:58:40.763Z,29.38
2023-01-29T21:01:09.378Z,23.77
2023-01-29T21:03:35.812Z,26.33
2023-01-29T21:06:02.273Z,21.52
2023-01-29T21:08:28.699Z,24.17
2023-01-29T21:10:55.058Z,30.88
2023-01-29T21:13:21.550Z,24.38
2023-01-29T21:15:50.943Z,24.25
2023-01-29T21:18:17.543Z,25.83
2023-01-29T21:20:44.483Z,24.27
2023-01-29T21:23:11.138Z,25.15
2023-01-29T21:25:38.613Z,22.58
2023-01-29T21:28:06.054Z,25.83
2023-01-29T21:30:32.930Z,26.60
2023-01-29T21:32:59.639Z,26.17
2023-01-29T21:35:25.992Z,27.35
2023-01-29T21:37:52.396Z,22.25
2023-01-29T21:40:20.115Z,25.60
2023-01-29T21:43:05.764Z,24.73
2023-01-29T21:45:34.162Z,27.57
2023-01-29T21:48:01.367Z,24.75
2023-01-29T21:50:27.769Z,23.33
2023-01-29T21:52:54.142Z,24.90
2023-01-29T21:55:20.549Z,25.70
2023-01-29T21:57:47.030Z,30.43
2023-01-29T22:00:13.741Z,27.13
2023-01-29T22:02:40.399Z,23.92
2023-01-29T22:05:18.751Z,27.42
2023-01-29T22:07:45.640Z,22.42
2023-01-29T22:10:12.456Z,22.10
2023-01-29T22:12:39.736Z,28.05
2023-01-29T22:15:07.569Z,24.92
2023-01-29T22:17:34.252Z,29.42
2023-01-29T22:20:01.066Z,25.73
2023-01-29T22:22:27.602Z,26.17
2023-01-29T22:24:55.074Z,28.88
2023-01-29T22:27:21.501Z,22.75
2023-01-29T22:29:47.918Z,24.63
2023-01-29T22:32:14.417Z,25.05
2023-01-29T22:34:40.811Z,25.27
2023-01-29T22:37:07.461Z,26.50
2023-01-29T22:39:33.953Z,24.50
2023-01-29T22:42:00.413Z,31.13
2023-01-29T22:44:26.782Z,30.85
2023-01-29T22:46:53.174Z,22.93
2023-01-29T22:49:19.721Z,20.48
2023-01-29T22:51:47.145Z,26.00
2023-01-29T22:54:15.476Z,25.70
2023-01-29T22:56:41.881Z,23.77
2023-01-29T22:59:10.031Z,25.20
2023-01-29T23:01:36.465Z,23.17
2023-01-29T23:04:02.859Z,26.90
2023-01-29T23:06:29.228Z,30.73
2023-01-29T23:08:55.680Z,21.30
2023-01-29T23:11:23.497Z,20.27
2023-01-29T23:13:52.644Z,22.77
2023-01-29T23:16:21.292Z,28.02
2023-01-29T23:18:53.040Z,27.63
2023-01-29T23:21:21.167Z,20.45
2023-01-29T23:23:47.519Z,23.57
2023-01-29T23:26:33.687Z,23.75
2023-01-29T23:29:00.378Z,21.35
2023-01-29T23:31:26.886Z,23.10
2023-01-29T23:33:53.296Z,17.95
2023-01-29T23:36:19.699Z,19.73
2023-01-29T23:38:46.242Z,24.45
2023-01-29T23:41:12.634Z,21.73
2023-01-29T23:43:39.012Z,20.38
2023-01-29T23:46:05.607Z,26.25
2023-01-29T23:48:31.991Z,18.83
2023-01-29T23:50:58.384Z,21.27
2023-01-29T23:53:24.806Z,23.00
2023-01-29T23:56:02.413Z,20.02
2023-01-29T23:58:29.829Z,18.58
